Bains, Louisiana
Current Conditions -  °F | °C
As of 2:55 PM on Tuesday 27 Jan 2015 (Local Time) from KHZR Reporting Station
Clear Clear  
Wind Chill: 73°   Ceiling: Unl
Heat Index: 73°   Visibility: 10mi
Dew Point: 37°   Wind: 8mph
Humidity: 26%   Direction: 300°WNW
Pressure: 30.09"   Gusts: NA
Location:  30.8804°N, 91.4243°W
Report Text: KHZR 272055Z AUTO 30007KT 10SM CLR 23/03 A3009 RMK AO2 T02300026
Loading
Personal Weather Stations






























Interactive Weather Map New forecast layout! Learn more

10-Day Weather Forecast

Advertisements
Track Severe Weather on mobile